Terminal Aerodrome Forecast
Issued by NWS

Home | Current Version | Previous Version | Text Only | Print | Product List | Glossary On
Versions: 1 2 3 4 5 6 7 8 9 10 11 12 13 14 15 16 17 18 19 20 21 22 23 24 25 26
000
FTUS41 KCAR 290101 AAB
TAFFVE
TAF AMD
KFVE 290101Z 2901/2924 VRB03KT 5SM -SN BR OVC003
     FM290300 00000KT P6SM OVC010
     FM290800 VRB03KT P6SM BKN015
     FM292200 35007KT P6SM BKN025
     FM292300 35007KT P6SM BKN050=

USA.gov is the U.S. government's official web portal to all federal, state and local government web resources and services.